sensor_id;sensor_type;location;lat;lon;timestamp;P1;durP1;ratioP1;P2;durP2;ratioP2
58468;SDS011;44257;44.804;10.220;2023-03-30T00:00:10;0.10;;;0.10;;
58468;SDS011;44257;44.804;10.220;2023-03-30T00:02:45;0.20;;;0.20;;
58468;SDS011;44257;44.804;10.220;2023-03-30T00:05:13;0.43;;;0.10;;
58468;SDS011;44257;44.804;10.220;2023-03-30T00:07:40;0.25;;;0.20;;
58468;SDS011;44257;44.804;10.220;2023-03-30T00:10:10;0.28;;;0.20;;
58468;SDS011;44257;44.804;10.220;2023-03-30T00:15:05;0.30;;;0.13;;
58468;SDS011;44257;44.804;10.220;2023-03-30T00:17:33;0.65;;;0.38;;
58468;SDS011;44257;44.804;10.220;2023-03-30T00:20:00;0.85;;;0.30;;
58468;SDS011;44257;44.804;10.220;2023-03-30T00:22:26;0.60;;;0.35;;
58468;SDS011;44257;44.804;10.220;2023-03-30T00:24:52;0.50;;;0.40;;
58468;SDS011;44257;44.804;10.220;2023-03-30T00:27:18;0.47;;;0.25;;
58468;SDS011;44257;44.804;10.220;2023-03-30T00:29:44;0.50;;;0.28;;
58468;SDS011;44257;44.804;10.220;2023-03-30T00:32:11;0.43;;;0.30;;
58468;SDS011;44257;44.804;10.220;2023-03-30T00:34:37;0.30;;;0.20;;
58468;SDS011;44257;44.804;10.220;2023-03-30T00:37:03;0.63;;;0.32;;
58468;SDS011;44257;44.804;10.220;2023-03-30T00:39:30;2.47;;;0.40;;
58468;SDS011;44257;44.804;10.220;2023-03-30T00:41:55;2.20;;;0.40;;
58468;SDS011;44257;44.804;10.220;2023-03-30T00:47:24;0.30;;;0.20;;
58468;SDS011;44257;44.804;10.220;2023-03-30T00:49:52;0.65;;;0.35;;
58468;SDS011;44257;44.804;10.220;2023-03-30T00:52:18;0.52;;;0.30;;
58468;SDS011;44257;44.804;10.220;2023-03-30T00:54:49;1.40;;;1.02;;
58468;SDS011;44257;44.804;10.220;2023-03-30T00:57:17;0.52;;;0.30;;
58468;SDS011;44257;44.804;10.220;2023-03-30T00:59:46;0.70;;;0.40;;
58468;SDS011;44257;44.804;10.220;2023-03-30T01:02:14;0.40;;;0.40;;
58468;SDS011;44257;44.804;10.220;2023-03-30T01:04:40;0.43;;;0.43;;
58468;SDS011;44257;44.804;10.220;2023-03-30T01:07:07;0.38;;;0.30;;
58468;SDS011;44257;44.804;10.220;2023-03-30T01:09:37;0.50;;;0.30;;
58468;SDS011;44257;44.804;10.220;2023-03-30T01:12:07;1.02;;;0.40;;
58468;SDS011;44257;44.804;10.220;2023-03-30T01:14:33;0.88;;;0.50;;
58468;SDS011;44257;44.804;10.220;2023-03-30T01:26:20;3.10;;;1.23;;
58468;SDS011;44257;44.804;10.220;2023-03-30T01:50:26;2.83;;;1.60;;
58468;SDS011;44257;44.804;10.220;2023-03-30T01:53:13;8.70;;;2.65;;
58468;SDS011;44257;44.804;10.220;2023-03-30T01:58:35;5.65;;;2.67;;
58468;SDS011;44257;44.804;10.220;2023-03-30T02:01:06;6.95;;;2.33;;
58468;SDS011;44257;44.804;10.220;2023-03-30T02:03:36;10.40;;;3.58;;
58468;SDS011;44257;44.804;10.220;2023-03-30T02:06:16;4.85;;;2.55;;
58468;SDS011;44257;44.804;10.220;2023-03-30T02:09:03;4.40;;;2.60;;
58468;SDS011;44257;44.804;10.220;2023-03-30T02:11:31;5.53;;;2.90;;
58468;SDS011;44257;44.804;10.220;2023-03-30T02:14:00;5.18;;;2.40;;
58468;SDS011;44257;44.804;10.220;2023-03-30T02:16:33;3.72;;;2.03;;
58468;SDS011;44257;44.804;10.220;2023-03-30T02:19:06;5.30;;;2.72;;
58468;SDS011;44257;44.804;10.220;2023-03-30T02:21:32;4.32;;;2.58;;
58468;SDS011;44257;44.804;10.220;2023-03-30T02:24:02;4.93;;;2.90;;
58468;SDS011;44257;44.804;10.220;2023-03-30T02:26:31;4.40;;;2.45;;
58468;SDS011;44257;44.804;10.220;2023-03-30T02:28:58;7.45;;;2.85;;
58468;SDS011;44257;44.804;10.220;2023-03-30T02:31:25;6.55;;;2.45;;
58468;SDS011;44257;44.804;10.220;2023-03-30T02:34:07;4.22;;;2.20;;
58468;SDS011;44257;44.804;10.220;2023-03-30T02:39:34;5.65;;;2.70;;
58468;SDS011;44257;44.804;10.220;2023-03-30T02:50:33;3.75;;;2.42;;
58468;SDS011;44257;44.804;10.220;2023-03-30T02:56:09;6.47;;;2.78;;
58468;SDS011;44257;44.804;10.220;2023-03-30T02:59:06;4.22;;;2.58;;
58468;SDS011;44257;44.804;10.220;2023-03-30T03:01:43;4.75;;;3.33;;
58468;SDS011;44257;44.804;10.220;2023-03-30T03:04:31;5.95;;;2.80;;
58468;SDS011;44257;44.804;10.220;2023-03-30T03:07:24;6.50;;;3.22;;
58468;SDS011;44257;44.804;10.220;2023-03-30T03:09:52;4.15;;;2.47;;
58468;SDS011;44257;44.804;10.220;2023-03-30T03:12:19;8.20;;;3.10;;
58468;SDS011;44257;44.804;10.220;2023-03-30T03:14:46;6.22;;;3.22;;
58468;SDS011;44257;44.804;10.220;2023-03-30T03:17:12;5.88;;;2.90;;
58468;SDS011;44257;44.804;10.220;2023-03-30T03:19:43;5.38;;;2.75;;
58468;SDS011;44257;44.804;10.220;2023-03-30T03:22:10;5.45;;;3.00;;
58468;SDS011;44257;44.804;10.220;2023-03-30T03:24:35;5.13;;;2.75;;
58468;SDS011;44257;44.804;10.220;2023-03-30T03:27:23;5.97;;;2.50;;
58468;SDS011;44257;44.804;10.220;2023-03-30T03:30:06;5.82;;;2.60;;
58468;SDS011;44257;44.804;10.220;2023-03-30T03:32:39;11.50;;;5.55;;
58468;SDS011;44257;44.804;10.220;2023-03-30T03:35:05;12.63;;;6.40;;
58468;SDS011;44257;44.804;10.220;2023-03-30T03:37:32;8.18;;;4.13;;
58468;SDS011;44257;44.804;10.220;2023-03-30T03:39:58;8.48;;;3.35;;
58468;SDS011;44257;44.804;10.220;2023-03-30T03:42:24;5.25;;;3.42;;
58468;SDS011;44257;44.804;10.220;2023-03-30T03:45:07;10.60;;;3.40;;
58468;SDS011;44257;44.804;10.220;2023-03-30T03:47:35;6.85;;;3.60;;
58468;SDS011;44257;44.804;10.220;2023-03-30T03:50:01;6.63;;;4.13;;
58468;SDS011;44257;44.804;10.220;2023-03-30T03:52:31;7.13;;;4.13;;
58468;SDS011;44257;44.804;10.220;2023-03-30T03:54:57;8.05;;;4.05;;
58468;SDS011;44257;44.804;10.220;2023-03-30T03:57:23;7.50;;;3.97;;
58468;SDS011;44257;44.804;10.220;2023-03-30T03:59:50;9.07;;;4.25;;
58468;SDS011;44257;44.804;10.220;2023-03-30T04:02:17;5.15;;;2.90;;
58468;SDS011;44257;44.804;10.220;2023-03-30T04:04:43;9.65;;;4.15;;
58468;SDS011;44257;44.804;10.220;2023-03-30T04:07:08;9.93;;;3.88;;
58468;SDS011;44257;44.804;10.220;2023-03-30T04:09:35;11.77;;;4.65;;
58468;SDS011;44257;44.804;10.220;2023-03-30T04:12:01;14.60;;;5.25;;
58468;SDS011;44257;44.804;10.220;2023-03-30T04:14:45;12.65;;;4.00;;
58468;SDS011;44257;44.804;10.220;2023-03-30T04:17:32;6.28;;;3.38;;
58468;SDS011;44257;44.804;10.220;2023-03-30T04:20:25;8.95;;;3.95;;
58468;SDS011;44257;44.804;10.220;2023-03-30T04:23:08;7.75;;;3.83;;
58468;SDS011;44257;44.804;10.220;2023-03-30T04:26:03;6.63;;;3.50;;
58468;SDS011;44257;44.804;10.220;2023-03-30T04:28:51;6.05;;;3.03;;
58468;SDS011;44257;44.804;10.220;2023-03-30T04:31:17;4.03;;;2.67;;
58468;SDS011;44257;44.804;10.220;2023-03-30T04:34:06;6.70;;;3.50;;
58468;SDS011;44257;44.804;10.220;2023-03-30T04:36:36;5.25;;;3.00;;
58468;SDS011;44257;44.804;10.220;2023-03-30T04:39:34;8.13;;;3.47;;
58468;SDS011;44257;44.804;10.220;2023-03-30T04:42:14;5.85;;;2.78;;
58468;SDS011;44257;44.804;10.220;2023-03-30T04:45:19;5.47;;;2.97;;
58468;SDS011;44257;44.804;10.220;2023-03-30T04:48:14;7.22;;;3.65;;
58468;SDS011;44257;44.804;10.220;2023-03-30T04:50:58;6.57;;;3.20;;
58468;SDS011;44257;44.804;10.220;2023-03-30T04:53:44;6.55;;;3.72;;
58468;SDS011;44257;44.804;10.220;2023-03-30T04:56:29;7.05;;;3.22;;
58468;SDS011;44257;44.804;10.220;2023-03-30T04:59:03;7.30;;;3.40;;
58468;SDS011;44257;44.804;10.220;2023-03-30T05:01:53;11.70;;;3.85;;
58468;SDS011;44257;44.804;10.220;2023-03-30T05:04:41;21.05;;;4.72;;
58468;SDS011;44257;44.804;10.220;2023-03-30T05:07:17;10.80;;;4.22;;
58468;SDS011;44257;44.804;10.220;2023-03-30T05:10:03;10.13;;;4.05;;
58468;SDS011;44257;44.804;10.220;2023-03-30T05:12:55;8.18;;;3.90;;
58468;SDS011;44257;44.804;10.220;2023-03-30T05:15:39;6.93;;;3.22;;
58468;SDS011;44257;44.804;10.220;2023-03-30T05:18:08;5.60;;;3.22;;
58468;SDS011;44257;44.804;10.220;2023-03-30T05:20:45;7.95;;;4.90;;
58468;SDS011;44257;44.804;10.220;2023-03-30T05:23:26;12.00;;;3.80;;
58468;SDS011;44257;44.804;10.220;2023-03-30T05:26:11;5.28;;;3.58;;
58468;SDS011;44257;44.804;10.220;2023-03-30T05:29:03;6.93;;;3.33;;
58468;SDS011;44257;44.804;10.220;2023-03-30T05:31:45;7.35;;;3.97;;
58468;SDS011;44257;44.804;10.220;2023-03-30T05:34:43;11.38;;;4.57;;
58468;SDS011;44257;44.804;10.220;2023-03-30T05:37:26;11.82;;;4.03;;
58468;SDS011;44257;44.804;10.220;2023-03-30T05:40:20;8.75;;;4.13;;
58468;SDS011;44257;44.804;10.220;2023-03-30T05:43:04;6.40;;;3.20;;
58468;SDS011;44257;44.804;10.220;2023-03-30T05:45:59;8.05;;;3.38;;
58468;SDS011;44257;44.804;10.220;2023-03-30T05:48:45;6.65;;;3.53;;
58468;SDS011;44257;44.804;10.220;2023-03-30T05:51:30;9.23;;;3.95;;
58468;SDS011;44257;44.804;10.220;2023-03-30T05:54:11;7.10;;;3.95;;
58468;SDS011;44257;44.804;10.220;2023-03-30T05:56:49;8.38;;;3.25;;
58468;SDS011;44257;44.804;10.220;2023-03-30T05:59:36;6.68;;;3.22;;
58468;SDS011;44257;44.804;10.220;2023-03-30T06:02:14;10.82;;;4.05;;
58468;SDS011;44257;44.804;10.220;2023-03-30T06:04:42;9.77;;;3.63;;
58468;SDS011;44257;44.804;10.220;2023-03-30T06:07:08;9.90;;;4.43;;
58468;SDS011;44257;44.804;10.220;2023-03-30T06:09:34;7.93;;;3.42;;
58468;SDS011;44257;44.804;10.220;2023-03-30T06:12:11;10.52;;;5.75;;
58468;SDS011;44257;44.804;10.220;2023-03-30T06:14:38;7.35;;;3.72;;
58468;SDS011;44257;44.804;10.220;2023-03-30T06:17:19;13.80;;;4.57;;
58468;SDS011;44257;44.804;10.220;2023-03-30T06:19:46;7.68;;;4.47;;
58468;SDS011;44257;44.804;10.220;2023-03-30T06:22:12;10.15;;;4.10;;
58468;SDS011;44257;44.804;10.220;2023-03-30T06:24:45;8.88;;;4.55;;
58468;SDS011;44257;44.804;10.220;2023-03-30T06:27:11;8.07;;;4.15;;
58468;SDS011;44257;44.804;10.220;2023-03-30T06:29:38;7.43;;;3.45;;
58468;SDS011;44257;44.804;10.220;2023-03-30T06:32:03;11.77;;;4.32;;
58468;SDS011;44257;44.804;10.220;2023-03-30T06:34:48;9.38;;;4.20;;
58468;SDS011;44257;44.804;10.220;2023-03-30T06:37:14;10.35;;;3.65;;
58468;SDS011;44257;44.804;10.220;2023-03-30T06:39:40;10.52;;;4.07;;
58468;SDS011;44257;44.804;10.220;2023-03-30T06:42:06;7.25;;;4.22;;
58468;SDS011;44257;44.804;10.220;2023-03-30T06:44:46;10.73;;;4.50;;
58468;SDS011;44257;44.804;10.220;2023-03-30T06:47:13;11.48;;;4.55;;
58468;SDS011;44257;44.804;10.220;2023-03-30T06:49:39;12.50;;;4.70;;
58468;SDS011;44257;44.804;10.220;2023-03-30T06:52:26;9.82;;;4.30;;
58468;SDS011;44257;44.804;10.220;2023-03-30T06:54:52;12.45;;;4.30;;
58468;SDS011;44257;44.804;10.220;2023-03-30T06:57:17;10.02;;;4.15;;
58468;SDS011;44257;44.804;10.220;2023-03-30T06:59:43;10.63;;;4.43;;
58468;SDS011;44257;44.804;10.220;2023-03-30T07:02:18;13.75;;;4.95;;
58468;SDS011;44257;44.804;10.220;2023-03-30T07:04:59;12.07;;;4.18;;
58468;SDS011;44257;44.804;10.220;2023-03-30T07:07:43;8.02;;;4.53;;
58468;SDS011;44257;44.804;10.220;2023-03-30T07:10:10;13.02;;;4.70;;
58468;SDS011;44257;44.804;10.220;2023-03-30T07:12:37;17.55;;;5.00;;
58468;SDS011;44257;44.804;10.220;2023-03-30T07:15:06;17.83;;;5.38;;
58468;SDS011;44257;44.804;10.220;2023-03-30T07:17:33;7.30;;;3.78;;
58468;SDS011;44257;44.804;10.220;2023-03-30T07:20:00;11.85;;;5.10;;
58468;SDS011;44257;44.804;10.220;2023-03-30T07:22:27;9.93;;;4.03;;
58468;SDS011;44257;44.804;10.220;2023-03-30T07:24:54;8.40;;;4.13;;
58468;SDS011;44257;44.804;10.220;2023-03-30T07:27:20;9.30;;;3.45;;
58468;SDS011;44257;44.804;10.220;2023-03-30T07:29:50;8.80;;;3.80;;
58468;SDS011;44257;44.804;10.220;2023-03-30T07:32:16;7.03;;;2.90;;
58468;SDS011;44257;44.804;10.220;2023-03-30T07:34:43;7.70;;;2.65;;
58468;SDS011;44257;44.804;10.220;2023-03-30T07:37:13;7.13;;;3.08;;
58468;SDS011;44257;44.804;10.220;2023-03-30T07:39:39;6.78;;;2.80;;
58468;SDS011;44257;44.804;10.220;2023-03-30T07:42:05;4.90;;;2.33;;
58468;SDS011;44257;44.804;10.220;2023-03-30T07:44:31;4.72;;;1.90;;
58468;SDS011;44257;44.804;10.220;2023-03-30T07:47:01;3.92;;;1.95;;
58468;SDS011;44257;44.804;10.220;2023-03-30T07:49:32;4.18;;;1.90;;
58468;SDS011;44257;44.804;10.220;2023-03-30T07:51:58;4.53;;;2.22;;
58468;SDS011;44257;44.804;10.220;2023-03-30T07:54:47;3.10;;;1.80;;
58468;SDS011;44257;44.804;10.220;2023-03-30T07:57:19;6.15;;;2.45;;
58468;SDS011;44257;44.804;10.220;2023-03-30T07:59:46;3.65;;;1.65;;
58468;SDS011;44257;44.804;10.220;2023-03-30T08:02:32;4.18;;;1.15;;
58468;SDS011;44257;44.804;10.220;2023-03-30T08:04:58;2.78;;;1.35;;
58468;SDS011;44257;44.804;10.220;2023-03-30T08:07:44;2.97;;;1.30;;
58468;SDS011;44257;44.804;10.220;2023-03-30T08:10:16;6.22;;;1.58;;
58468;SDS011;44257;44.804;10.220;2023-03-30T08:12:42;5.60;;;1.83;;
58468;SDS011;44257;44.804;10.220;2023-03-30T08:15:08;4.38;;;1.23;;
58468;SDS011;44257;44.804;10.220;2023-03-30T08:17:34;2.80;;;1.10;;
58468;SDS011;44257;44.804;10.220;2023-03-30T08:20:00;3.60;;;1.20;;
58468;SDS011;44257;44.804;10.220;2023-03-30T08:22:26;2.80;;;1.00;;
58468;SDS011;44257;44.804;10.220;2023-03-30T08:24:52;2.03;;;1.00;;
58468;SDS011;44257;44.804;10.220;2023-03-30T08:27:18;4.55;;;0.75;;
58468;SDS011;44257;44.804;10.220;2023-03-30T08:29:43;3.00;;;1.23;;
58468;SDS011;44257;44.804;10.220;2023-03-30T08:32:09;2.65;;;1.13;;
58468;SDS011;44257;44.804;10.220;2023-03-30T08:34:35;1.67;;;0.90;;
58468;SDS011;44257;44.804;10.220;2023-03-30T08:37:01;2.70;;;1.15;;
58468;SDS011;44257;44.804;10.220;2023-03-30T08:39:28;1.98;;;0.75;;
58468;SDS011;44257;44.804;10.220;2023-03-30T08:44:38;1.60;;;0.90;;
58468;SDS011;44257;44.804;10.220;2023-03-30T08:47:49;2.95;;;0.73;;
58468;SDS011;44257;44.804;10.220;2023-03-30T08:50:04;1.13;;;0.77;;
58468;SDS011;44257;44.804;10.220;2023-03-30T08:52:31;2.58;;;0.68;;
58468;SDS011;44257;44.804;10.220;2023-03-30T08:54:58;1.65;;;0.85;;
58468;SDS011;44257;44.804;10.220;2023-03-30T09:02:31;3.08;;;1.35;;
58468;SDS011;44257;44.804;10.220;2023-03-30T09:07:45;2.13;;;0.85;;
58468;SDS011;44257;44.804;10.220;2023-03-30T09:10:33;8.57;;;0.93;;
58468;SDS011;44257;44.804;10.220;2023-03-30T09:13:02;2.85;;;1.02;;
58468;SDS011;44257;44.804;10.220;2023-03-30T09:15:35;3.30;;;0.93;;
58468;SDS011;44257;44.804;10.220;2023-03-30T09:18:21;2.15;;;0.65;;
58468;SDS011;44257;44.804;10.220;2023-03-30T09:20:55;3.60;;;0.98;;
58468;SDS011;44257;44.804;10.220;2023-03-30T09:23:25;3.15;;;0.80;;
58468;SDS011;44257;44.804;10.220;2023-03-30T09:30:50;1.33;;;0.90;;
58468;SDS011;44257;44.804;10.220;2023-03-30T09:33:26;2.50;;;1.00;;
58468;SDS011;44257;44.804;10.220;2023-03-30T09:38:24;2.42;;;0.65;;
58468;SDS011;44257;44.804;10.220;2023-03-30T09:43:34;4.55;;;1.05;;
58468;SDS011;44257;44.804;10.220;2023-03-30T09:46:06;2.15;;;0.77;;
58468;SDS011;44257;44.804;10.220;2023-03-30T09:48:42;2.63;;;0.80;;
58468;SDS011;44257;44.804;10.220;2023-03-30T09:51:13;1.60;;;0.60;;
58468;SDS011;44257;44.804;10.220;2023-03-30T09:53:48;1.25;;;0.70;;
58468;SDS011;44257;44.804;10.220;2023-03-30T09:59:27;2.63;;;1.10;;
58468;SDS011;44257;44.804;10.220;2023-03-30T10:09:46;2.42;;;0.73;;
58468;SDS011;44257;44.804;10.220;2023-03-30T10:12:12;2.28;;;1.02;;
58468;SDS011;44257;44.804;10.220;2023-03-30T10:14:39;2.28;;;1.17;;
58468;SDS011;44257;44.804;10.220;2023-03-30T10:17:05;1.67;;;0.60;;
58468;SDS011;44257;44.804;10.220;2023-03-30T10:19:32;5.43;;;1.30;;
58468;SDS011;44257;44.804;10.220;2023-03-30T10:22:00;4.82;;;1.30;;
58468;SDS011;44257;44.804;10.220;2023-03-30T10:24:29;2.53;;;0.80;;
58468;SDS011;44257;44.804;10.220;2023-03-30T10:29:37;4.57;;;1.13;;
58468;SDS011;44257;44.804;10.220;2023-03-30T10:32:19;4.28;;;0.70;;
58468;SDS011;44257;44.804;10.220;2023-03-30T10:34:51;3.03;;;0.82;;
58468;SDS011;44257;44.804;10.220;2023-03-30T10:40:00;1.98;;;0.70;;
58468;SDS011;44257;44.804;10.220;2023-03-30T10:42:34;5.32;;;0.65;;
58468;SDS011;44257;44.804;10.220;2023-03-30T10:45:04;3.00;;;0.70;;
58468;SDS011;44257;44.804;10.220;2023-03-30T10:50:38;2.25;;;1.30;;
58468;SDS011;44257;44.804;10.220;2023-03-30T11:04:10;1.30;;;0.70;;
58468;SDS011;44257;44.804;10.220;2023-03-30T11:06:46;4.82;;;1.33;;
58468;SDS011;44257;44.804;10.220;2023-03-30T11:09:17;1.65;;;0.85;;
58468;SDS011;44257;44.804;10.220;2023-03-30T11:11:51;1.85;;;0.75;;
58468;SDS011;44257;44.804;10.220;2023-03-30T11:14:48;1.48;;;0.70;;
58468;SDS011;44257;44.804;10.220;2023-03-30T11:17:26;2.85;;;0.88;;
58468;SDS011;44257;44.804;10.220;2023-03-30T11:19:56;3.10;;;0.90;;
58468;SDS011;44257;44.804;10.220;2023-03-30T11:25:00;3.08;;;0.80;;
58468;SDS011;44257;44.804;10.220;2023-03-30T11:28:14;11.38;;;1.88;;
58468;SDS011;44257;44.804;10.220;2023-03-30T11:30:25;7.25;;;1.73;;
58468;SDS011;44257;44.804;10.220;2023-03-30T11:36:17;1.65;;;0.70;;
58468;SDS011;44257;44.804;10.220;2023-03-30T11:38:56;2.80;;;0.70;;
58468;SDS011;44257;44.804;10.220;2023-03-30T11:41:34;7.72;;;1.40;;
58468;SDS011;44257;44.804;10.220;2023-03-30T11:44:07;5.10;;;1.00;;
58468;SDS011;44257;44.804;10.220;2023-03-30T11:53:25;4.88;;;1.65;;
58468;SDS011;44257;44.804;10.220;2023-03-30T11:58:33;12.68;;;1.63;;
58468;SDS011;44257;44.804;10.220;2023-03-30T12:04:11;2.13;;;0.93;;
58468;SDS011;44257;44.804;10.220;2023-03-30T12:06:54;3.10;;;0.90;;
58468;SDS011;44257;44.804;10.220;2023-03-30T12:09:28;1.48;;;0.80;;
58468;SDS011;44257;44.804;10.220;2023-03-30T12:12:12;5.93;;;1.98;;
58468;SDS011;44257;44.804;10.220;2023-03-30T12:20:05;1.90;;;0.60;;
58468;SDS011;44257;44.804;10.220;2023-03-30T12:31:19;2.80;;;1.10;;
58468;SDS011;44257;44.804;10.220;2023-03-30T12:33:50;1.15;;;0.60;;
58468;SDS011;44257;44.804;10.220;2023-03-30T12:39:03;4.32;;;0.82;;
58468;SDS011;44257;44.804;10.220;2023-03-30T12:41:38;5.63;;;0.60;;
58468;SDS011;44257;44.804;10.220;2023-03-30T12:46:53;3.55;;;1.08;;
58468;SDS011;44257;44.804;10.220;2023-03-30T13:00:18;1.05;;;0.60;;
58468;SDS011;44257;44.804;10.220;2023-03-30T13:05:30;4.78;;;2.42;;
58468;SDS011;44257;44.804;10.220;2023-03-30T13:08:04;2.72;;;0.80;;
58468;SDS011;44257;44.804;10.220;2023-03-30T13:10:34;7.07;;;1.25;;
58468;SDS011;44257;44.804;10.220;2023-03-30T13:13:04;10.55;;;1.52;;
58468;SDS011;44257;44.804;10.220;2023-03-30T13:15:52;7.50;;;1.10;;
58468;SDS011;44257;44.804;10.220;2023-03-30T13:18:22;2.85;;;1.10;;
58468;SDS011;44257;44.804;10.220;2023-03-30T13:23:24;1.77;;;0.90;;
58468;SDS011;44257;44.804;10.220;2023-03-30T13:26:05;1.73;;;0.60;;
58468;SDS011;44257;44.804;10.220;2023-03-30T13:36:35;5.28;;;1.20;;
58468;SDS011;44257;44.804;10.220;2023-03-30T13:39:11;2.97;;;0.68;;
58468;SDS011;44257;44.804;10.220;2023-03-30T13:41:57;2.67;;;0.75;;
58468;SDS011;44257;44.804;10.220;2023-03-30T13:45:03;3.53;;;1.40;;
58468;SDS011;44257;44.804;10.220;2023-03-30T13:47:48;3.20;;;0.85;;
58468;SDS011;44257;44.804;10.220;2023-03-30T13:50:29;1.30;;;0.82;;
58468;SDS011;44257;44.804;10.220;2023-03-30T13:52:59;2.08;;;0.60;;
58468;SDS011;44257;44.804;10.220;2023-03-30T13:55:29;0.60;;;0.50;;
58468;SDS011;44257;44.804;10.220;2023-03-30T13:57:58;1.27;;;0.60;;
58468;SDS011;44257;44.804;10.220;2023-03-30T14:00:48;2.85;;;1.10;;
58468;SDS011;44257;44.804;10.220;2023-03-30T14:03:43;8.57;;;1.10;;
58468;SDS011;44257;44.804;10.220;2023-03-30T14:06:18;2.75;;;1.30;;
58468;SDS011;44257;44.804;10.220;2023-03-30T14:08:56;5.15;;;1.00;;
58468;SDS011;44257;44.804;10.220;2023-03-30T14:11:36;1.95;;;0.47;;
58468;SDS011;44257;44.804;10.220;2023-03-30T14:14:16;1.45;;;0.47;;
58468;SDS011;44257;44.804;10.220;2023-03-30T14:16:47;1.75;;;0.60;;
58468;SDS011;44257;44.804;10.220;2023-03-30T14:21:46;2.13;;;1.05;;
58468;SDS011;44257;44.804;10.220;2023-03-30T14:24:17;3.67;;;0.90;;
58468;SDS011;44257;44.804;10.220;2023-03-30T14:26:45;1.75;;;0.75;;
58468;SDS011;44257;44.804;10.220;2023-03-30T14:29:17;1.40;;;0.60;;
58468;SDS011;44257;44.804;10.220;2023-03-30T14:34:24;2.05;;;0.60;;
58468;SDS011;44257;44.804;10.220;2023-03-30T14:36:52;2.80;;;1.10;;
58468;SDS011;44257;44.804;10.220;2023-03-30T14:39:20;3.25;;;1.75;;
58468;SDS011;44257;44.804;10.220;2023-03-30T14:41:48;3.78;;;1.40;;
58468;SDS011;44257;44.804;10.220;2023-03-30T14:44:15;3.08;;;1.42;;
58468;SDS011;44257;44.804;10.220;2023-03-30T14:46:45;4.28;;;1.00;;
58468;SDS011;44257;44.804;10.220;2023-03-30T14:51:47;3.70;;;1.73;;
58468;SDS011;44257;44.804;10.220;2023-03-30T14:54:15;3.17;;;1.20;;
58468;SDS011;44257;44.804;10.220;2023-03-30T14:56:50;2.38;;;1.08;;
58468;SDS011;44257;44.804;10.220;2023-03-30T14:59:20;8.05;;;0.70;;
58468;SDS011;44257;44.804;10.220;2023-03-30T15:01:47;1.48;;;0.63;;
58468;SDS011;44257;44.804;10.220;2023-03-30T15:04:15;3.75;;;0.65;;
58468;SDS011;44257;44.804;10.220;2023-03-30T15:06:44;5.25;;;1.05;;
58468;SDS011;44257;44.804;10.220;2023-03-30T15:09:34;3.92;;;1.20;;
58468;SDS011;44257;44.804;10.220;2023-03-30T15:12:02;7.07;;;3.42;;
58468;SDS011;44257;44.804;10.220;2023-03-30T15:14:33;5.43;;;3.30;;
58468;SDS011;44257;44.804;10.220;2023-03-30T15:17:07;8.60;;;4.63;;
58468;SDS011;44257;44.804;10.220;2023-03-30T15:19:43;13.93;;;5.47;;
58468;SDS011;44257;44.804;10.220;2023-03-30T15:22:44;9.48;;;4.85;;
58468;SDS011;44257;44.804;10.220;2023-03-30T15:25:06;12.00;;;5.47;;
58468;SDS011;44257;44.804;10.220;2023-03-30T15:27:37;12.30;;;6.05;;
58468;SDS011;44257;44.804;10.220;2023-03-30T15:30:06;9.77;;;5.57;;
58468;SDS011;44257;44.804;10.220;2023-03-30T15:35:18;13.82;;;5.82;;
58468;SDS011;44257;44.804;10.220;2023-03-30T15:37:51;8.93;;;6.05;;
58468;SDS011;44257;44.804;10.220;2023-03-30T15:43:12;12.98;;;6.18;;
58468;SDS011;44257;44.804;10.220;2023-03-30T15:46:02;13.20;;;7.75;;
58468;SDS011;44257;44.804;10.220;2023-03-30T15:48:44;13.10;;;7.90;;
58468;SDS011;44257;44.804;10.220;2023-03-30T15:59:44;15.82;;;8.25;;
58468;SDS011;44257;44.804;10.220;2023-03-30T16:02:19;15.10;;;8.60;;
58468;SDS011;44257;44.804;10.220;2023-03-30T16:04:46;13.05;;;7.85;;
58468;SDS011;44257;44.804;10.220;2023-03-30T16:07:19;13.38;;;7.40;;
58468;SDS011;44257;44.804;10.220;2023-03-30T16:09:46;13.07;;;7.00;;
58468;SDS011;44257;44.804;10.220;2023-03-30T16:12:13;15.75;;;7.88;;
58468;SDS011;44257;44.804;10.220;2023-03-30T16:14:42;16.55;;;8.02;;
58468;SDS011;44257;44.804;10.220;2023-03-30T16:17:09;15.77;;;8.15;;
58468;SDS011;44257;44.804;10.220;2023-03-30T16:19:37;15.23;;;8.02;;
58468;SDS011;44257;44.804;10.220;2023-03-30T16:22:04;19.58;;;7.13;;
58468;SDS011;44257;44.804;10.220;2023-03-30T16:24:30;16.13;;;8.52;;
58468;SDS011;44257;44.804;10.220;2023-03-30T16:26:55;15.43;;;9.43;;
58468;SDS011;44257;44.804;10.220;2023-03-30T16:29:22;15.00;;;8.45;;
58468;SDS011;44257;44.804;10.220;2023-03-30T16:31:48;13.38;;;8.20;;
58468;SDS011;44257;44.804;10.220;2023-03-30T16:34:15;13.95;;;7.43;;
58468;SDS011;44257;44.804;10.220;2023-03-30T16:36:41;12.00;;;7.28;;
58468;SDS011;44257;44.804;10.220;2023-03-30T16:41:45;17.65;;;8.27;;
58468;SDS011;44257;44.804;10.220;2023-03-30T16:44:12;10.90;;;6.57;;
58468;SDS011;44257;44.804;10.220;2023-03-30T16:46:38;16.10;;;7.38;;
58468;SDS011;44257;44.804;10.220;2023-03-30T16:49:05;14.45;;;6.10;;
58468;SDS011;44257;44.804;10.220;2023-03-30T16:51:46;13.93;;;6.72;;
58468;SDS011;44257;44.804;10.220;2023-03-30T16:54:12;10.38;;;6.30;;
58468;SDS011;44257;44.804;10.220;2023-03-30T16:56:38;14.55;;;6.78;;
58468;SDS011;44257;44.804;10.220;2023-03-30T16:59:05;11.07;;;7.05;;
58468;SDS011;44257;44.804;10.220;2023-03-30T17:01:39;10.63;;;6.63;;
58468;SDS011;44257;44.804;10.220;2023-03-30T17:04:05;12.88;;;7.03;;
58468;SDS011;44257;44.804;10.220;2023-03-30T17:06:33;15.55;;;7.68;;
58468;SDS011;44257;44.804;10.220;2023-03-30T17:08:59;12.95;;;6.97;;
58468;SDS011;44257;44.804;10.220;2023-03-30T17:11:25;11.57;;;6.82;;
58468;SDS011;44257;44.804;10.220;2023-03-30T17:13:51;14.05;;;7.20;;
58468;SDS011;44257;44.804;10.220;2023-03-30T17:16:17;13.68;;;6.82;;
58468;SDS011;44257;44.804;10.220;2023-03-30T17:18:42;11.43;;;6.97;;
58468;SDS011;44257;44.804;10.220;2023-03-30T17:21:08;12.50;;;7.53;;
58468;SDS011;44257;44.804;10.220;2023-03-30T17:23:40;11.60;;;7.07;;
58468;SDS011;44257;44.804;10.220;2023-03-30T17:26:08;12.10;;;6.65;;
58468;SDS011;44257;44.804;10.220;2023-03-30T17:28:36;12.32;;;6.93;;
58468;SDS011;44257;44.804;10.220;2023-03-30T17:31:03;11.38;;;7.20;;
58468;SDS011;44257;44.804;10.220;2023-03-30T17:33:32;11.25;;;6.63;;
58468;SDS011;44257;44.804;10.220;2023-03-30T17:35:59;7.97;;;3.88;;
58468;SDS011;44257;44.804;10.220;2023-03-30T17:38:28;4.95;;;2.10;;
58468;SDS011;44257;44.804;10.220;2023-03-30T17:40:54;2.25;;;1.20;;
58468;SDS011;44257;44.804;10.220;2023-03-30T17:43:21;3.60;;;0.80;;
58468;SDS011;44257;44.804;10.220;2023-03-30T17:45:47;1.63;;;0.57;;
58468;SDS011;44257;44.804;10.220;2023-03-30T17:48:14;2.58;;;1.23;;
58468;SDS011;44257;44.804;10.220;2023-03-30T17:50:42;1.83;;;0.98;;
58468;SDS011;44257;44.804;10.220;2023-03-30T17:53:13;2.53;;;0.55;;
58468;SDS011;44257;44.804;10.220;2023-03-30T17:55:43;2.05;;;1.02;;
58468;SDS011;44257;44.804;10.220;2023-03-30T17:58:15;4.07;;;0.73;;
58468;SDS011;44257;44.804;10.220;2023-03-30T18:00:45;1.23;;;0.50;;
58468;SDS011;44257;44.804;10.220;2023-03-30T18:03:12;5.00;;;1.02;;
58468;SDS011;44257;44.804;10.220;2023-03-30T18:05:41;2.85;;;0.65;;
58468;SDS011;44257;44.804;10.220;2023-03-30T18:08:15;1.90;;;1.25;;
58468;SDS011;44257;44.804;10.220;2023-03-30T18:10:48;2.88;;;0.47;;
58468;SDS011;44257;44.804;10.220;2023-03-30T18:13:16;0.82;;;0.52;;